Time;durP1;ratioP1;P1;durP2;ratioP2;P2;SDS_P1;SDS_P2;PMS_P1;PMS_P2;Temp;Humidity;BMP_temperature;BMP_pressure;BME280_temperature;BME280_humidity;BME280_pressure;Samples;Min_cycle;Max_cycle;Signal;HPM_P1;HPM_P2
2021/05/29 00:02:15;;;;;;;5.63;3.92;;;18.00;52.10;;;;;;4882361;29;20033;-87
2021/05/29 00:04:41;;;;;;;5.35;3.65;;;18.00;52.30;;;;;;4883270;29;20036;-86
2021/05/29 00:07:08;;;;;;;6.15;3.75;;;18.00;52.30;;;;;;4883021;29;20449;-87
2021/05/29 00:09:35;;;;;;;5.63;3.92;;;17.90;52.20;;;;;;4883216;29;20025;-86
2021/05/29 00:12:02;;;;;;;6.95;4.45;;;17.90;52.40;;;;;;4864725;29;20048;-86
2021/05/29 00:14:30;;;;;;;5.63;4.07;;;17.90;55.30;;;;;;4864489;29;20399;-86
2021/05/29 00:16:56;;;;;;;5.10;3.80;;;17.90;54.40;;;;;;4871073;29;20029;-86
2021/05/29 00:19:22;;;;;;;5.65;4.07;;;17.80;53.70;;;;;;4883162;29;20057;-86
2021/05/29 00:21:48;;;;;;;5.00;3.80;;;17.80;53.10;;;;;;4883228;29;20047;-86
2021/05/29 00:24:14;;;;;;;7.13;4.68;;;17.80;53.00;;;;;;4883133;29;20028;-85
2021/05/29 00:26:40;;;;;;;6.97;5.30;;;17.80;56.90;;;;;;4883058;29;20076;-86
2021/05/29 00:29:06;;;;;;;5.82;4.03;;;17.70;54.80;;;;;;4882754;29;20044;-86
2021/05/29 00:31:32;;;;;;;5.80;4.57;;;17.70;53.90;;;;;;4881742;29;20484;-86
2021/05/29 00:33:58;;;;;;;5.43;4.10;;;17.70;53.70;;;;;;4883039;29;20452;-86
2021/05/29 00:36:24;;;;;;;5.03;3.97;;;17.70;53.30;;;;;;4883055;29;20473;-85
2021/05/29 00:38:50;;;;;;;6.82;4.03;;;17.70;53.20;;;;;;4866090;29;20037;-86
2021/05/29 00:41:17;;;;;;;5.25;3.92;;;17.70;53.10;;;;;;4870539;29;20373;-86
2021/05/29 00:43:43;;;;;;;6.53;4.22;;;17.70;53.10;;;;;;4883119;29;20388;-86
2021/05/29 00:46:09;;;;;;;5.47;3.92;;;17.70;53.20;;;;;;4876321;29;20036;-86
2021/05/29 00:48:37;;;;;;;5.28;3.97;;;17.70;53.10;;;;;;4876731;29;20037;-86
2021/05/29 00:51:04;;;;;;;5.85;4.07;;;17.60;53.00;;;;;;4883086;29;20021;-86
2021/05/29 00:53:33;;;;;;;7.10;4.28;;;17.70;53.10;;;;;;4882728;29;20029;-87
2021/05/29 00:56:00;;;;;;;5.85;4.32;;;17.60;53.40;;;;;;4882928;29;20025;-86
2021/05/29 00:58:27;;;;;;;5.65;4.10;;;17.60;54.80;;;;;;4882709;29;20033;-86
2021/05/29 01:00:53;;;;;;;7.05;4.72;;;17.60;55.10;;;;;;4882592;29;20400;-87
2021/05/29 01:03:19;;;;;;;6.93;4.35;;;17.60;54.90;;;;;;4882712;29;20394;-86
2021/05/29 01:05:46;;;;;;;5.97;4.55;;;17.60;54.50;;;;;;4882751;29;20087;-86
2021/05/29 01:08:13;;;;;;;6.85;4.80;;;17.60;54.20;;;;;;4882601;29;20029;-86
2021/05/29 01:10:40;;;;;;;6.38;4.68;;;17.60;56.10;;;;;;4875430;29;20373;-86
2021/05/29 01:13:08;;;;;;;6.05;4.50;;;17.50;55.00;;;;;;4867162;29;20442;-86
2021/05/29 01:15:39;;;;;;;6.60;4.32;;;17.50;54.70;;;;;;4886027;29;20373;-86
2021/05/29 01:18:11;;;;;;;6.13;4.22;;;17.50;54.70;;;;;;4886277;29;20029;-86
2021/05/29 01:20:38;;;;;;;6.28;5.18;;;17.50;54.40;;;;;;4884743;29;20493;-86
2021/05/29 01:23:04;;;;;;;6.10;4.88;;;17.50;56.90;;;;;;4885847;29;20041;-86
2021/05/29 01:25:50;;;;;;;6.53;4.70;;;17.40;55.80;;;;;;4869132;29;20033;-86
2021/05/29 01:28:26;;;;;;;7.88;5.07;;;17.40;56.50;;;;;;4885673;29;20097;-86
2021/05/29 01:31:02;;;;;;;9.02;5.80;;;17.40;57.80;;;;;;4885520;29;20025;-85
2021/05/29 01:33:31;;;;;;;10.63;5.75;;;17.30;58.50;;;;;;4885826;29;20576;-85
2021/05/29 01:36:03;;;;;;;9.73;7.20;;;17.30;59.30;;;;;;4885620;29;20100;-85
2021/05/29 01:38:29;;;;;;;8.80;6.63;;;17.20;60.40;;;;;;4885736;29;20107;-85
2021/05/29 01:41:14;;;;;;;11.30;6.68;;;17.20;59.10;;;;;;4885548;29;20033;-83
2021/05/29 01:43:45;;;;;;;8.57;6.10;;;17.20;59.00;;;;;;4869044;29;20032;-83
2021/05/29 01:46:12;;;;;;;8.77;6.40;;;17.10;59.00;;;;;;4878232;29;20108;-84
2021/05/29 01:48:41;;;;;;;8.35;6.38;;;17.10;59.60;;;;;;4880218;29;20021;-84
2021/05/29 01:51:08;;;;;;;10.07;6.30;;;17.00;58.10;;;;;;4885515;29;20499;-84
2021/05/29 01:53:34;;;;;;;9.02;5.65;;;17.00;57.30;;;;;;4885312;29;20064;-83
2021/05/29 01:56:01;;;;;;;8.18;6.03;;;17.00;56.90;;;;;;4885730;29;20553;-84
2021/05/29 01:58:27;;;;;;;8.55;6.03;;;17.10;56.60;;;;;;4884466;29;20056;-84
2021/05/29 02:00:53;;;;;;;8.60;5.60;;;17.10;56.50;;;;;;4885251;29;20053;-84
2021/05/29 02:03:19;;;;;;;8.05;5.45;;;17.10;56.00;;;;;;4885153;29;20139;-84
2021/05/29 02:05:45;;;;;;;8.20;6.15;;;17.20;56.10;;;;;;4885195;29;20049;-84
2021/05/29 02:08:13;;;;;;;10.43;5.43;;;17.10;55.70;;;;;;4884884;29;20868;-84
2021/05/29 02:10:41;;;;;;;9.70;5.95;;;17.10;55.50;;;;;;4887590;29;20018;-84
2021/05/29 02:13:10;;;;;;;7.35;5.50;;;17.10;55.20;;;;;;4881215;29;20488;-84
2021/05/29 02:15:38;;;;;;;8.85;6.00;;;17.10;55.00;;;;;;4883435;29;20025;-84
2021/05/29 02:18:06;;;;;;;8.40;5.82;;;17.10;54.90;;;;;;4884671;29;20029;-84
2021/05/29 02:20:48;;;;;;;7.72;5.80;;;17.10;54.90;;;;;;4884939;29;20120;-84
2021/05/29 02:23:19;;;;;;;9.98;6.70;;;17.00;54.70;;;;;;4884887;29;20064;-83
2021/05/29 02:25:45;;;;;;;7.32;5.55;;;17.00;54.60;;;;;;4884195;29;20025;-84
2021/05/29 02:28:12;;;;;;;6.70;5.40;;;17.00;54.60;;;;;;4884680;29;20033;-84
2021/05/29 02:30:38;;;;;;;8.60;5.47;;;17.00;54.60;;;;;;4884470;29;20025;-84
2021/05/29 02:33:05;;;;;;;7.93;5.70;;;17.00;54.60;;;;;;4872547;29;20021;-84
2021/05/29 02:35:31;;;;;;;8.30;6.13;;;17.00;55.10;;;;;;4884682;29;20032;-84
2021/05/29 02:37:57;;;;;;;8.23;6.10;;;17.00;54.80;;;;;;4884888;29;20033;-84
2021/05/29 02:40:23;;;;;;;8.70;6.07;;;17.00;54.90;;;;;;4884459;29;20151;-84
2021/05/29 02:42:50;;;;;;;6.65;5.13;;;17.00;55.20;;;;;;4884542;29;20037;-84
2021/05/29 02:45:16;;;;;;;7.35;5.93;;;16.90;54.80;;;;;;4884191;29;20036;-84
2021/05/29 02:47:41;;;;;;;8.35;6.30;;;16.90;54.90;;;;;;4872374;29;20037;-84
2021/05/29 02:50:08;;;;;;;8.20;6.47;;;16.90;56.60;;;;;;4884587;29;20032;-84
2021/05/29 02:52:34;;;;;;;9.43;7.00;;;16.90;56.20;;;;;;4867742;29;20033;-84
2021/05/29 02:55:01;;;;;;;9.05;7.28;;;16.90;58.80;;;;;;4884327;29;20021;-84
2021/05/29 02:57:27;;;;;;;8.63;7.07;;;16.80;57.00;;;;;;4884702;29;20029;-87
2021/05/29 02:59:52;;;;;;;9.40;6.47;;;16.80;56.20;;;;;;4883838;29;20029;-87
2021/05/29 03:02:18;;;;;;;8.18;6.50;;;16.80;55.90;;;;;;4884169;29;20039;-87
2021/05/29 03:04:44;;;;;;;8.57;5.72;;;16.80;55.60;;;;;;4882955;29;20112;-87
2021/05/29 03:07:11;;;;;;;8.70;6.13;;;16.80;55.60;;;;;;4883986;29;20053;-87
2021/05/29 03:09:37;;;;;;;9.55;6.40;;;16.80;55.30;;;;;;4884036;29;20076;-87
2021/05/29 03:12:03;;;;;;;7.53;5.90;;;16.80;55.30;;;;;;4865537;29;20489;-86
2021/05/29 03:14:29;;;;;;;9.73;6.82;;;16.70;55.30;;;;;;4876150;29;20025;-86
2021/05/29 03:16:55;;;;;;;7.05;5.68;;;16.80;55.30;;;;;;4883756;29;20035;-87
2021/05/29 03:19:21;;;;;;;7.43;5.70;;;16.80;55.50;;;;;;4882974;29;20026;-87
2021/05/29 03:21:47;;;;;;;8.02;5.88;;;16.80;55.50;;;;;;4883748;29;20036;-86
2021/05/29 03:24:13;;;;;;;7.55;5.45;;;16.80;55.50;;;;;;4883888;29;20066;-86
2021/05/29 03:26:39;;;;;;;7.68;5.75;;;16.80;55.60;;;;;;4883643;29;20029;-86
2021/05/29 03:29:06;;;;;;;7.80;5.45;;;16.70;55.50;;;;;;4866777;29;20060;-87
2021/05/29 03:31:33;;;;;;;9.35;5.93;;;16.70;55.50;;;;;;4866870;29;20029;-86
2021/05/29 03:33:59;;;;;;;8.23;5.85;;;16.70;56.00;;;;;;4883654;29;20088;-86
2021/05/29 03:36:25;;;;;;;7.38;5.40;;;16.70;55.60;;;;;;4883553;29;20081;-86
2021/05/29 03:38:51;;;;;;;8.38;6.07;;;16.60;55.60;;;;;;4883584;29;20024;-87
2021/05/29 03:41:17;;;;;;;9.60;6.32;;;16.60;55.40;;;;;;4883978;29;20033;-87
2021/05/29 03:43:43;;;;;;;8.18;6.10;;;16.60;55.50;;;;;;4883467;29;20049;-86
2021/05/29 03:46:09;;;;;;;8.05;6.43;;;16.50;55.30;;;;;;4876949;29;20508;-87
2021/05/29 03:48:35;;;;;;;12.30;6.93;;;16.50;55.50;;;;;;4877508;29;20104;-87
2021/05/29 03:51:01;;;;;;;10.55;7.32;;;16.40;57.20;;;;;;4883700;29;20033;-87
2021/05/29 03:53:27;;;;;;;10.38;6.80;;;16.40;59.40;;;;;;4883733;29;20029;-86
2021/05/29 03:55:54;;;;;;;8.32;6.43;;;16.40;58.40;;;;;;4883632;29;20033;-87
2021/05/29 03:58:20;;;;;;;7.57;6.30;;;16.30;57.50;;;;;;4883547;29;20040;-86
2021/05/29 04:00:46;;;;;;;8.00;6.15;;;16.30;56.80;;;;;;4883205;29;20484;-87
2021/05/29 04:03:12;;;;;;;8.15;5.70;;;16.30;56.40;;;;;;4883571;29;20064;-86
2021/05/29 04:05:38;;;;;;;8.18;5.25;;;16.20;56.10;;;;;;4883362;29;20049;-87
2021/05/29 04:08:04;;;;;;;8.18;5.90;;;16.20;56.00;;;;;;4883144;29;20408;-87
2021/05/29 04:10:32;;;;;;;7.18;5.78;;;16.20;55.80;;;;;;4864896;29;20441;-87
2021/05/29 04:12:58;;;;;;;7.63;6.65;;;16.20;56.50;;;;;;4864751;29;20044;-86
2021/05/29 04:15:25;;;;;;;7.03;5.50;;;16.20;58.50;;;;;;4883030;29;20035;-86
2021/05/29 04:17:51;;;;;;;8.95;6.78;;;16.20;57.80;;;;;;4883173;29;20021;-86
2021/05/29 04:20:23;;;;;;;8.00;5.78;;;16.20;56.90;;;;;;4883261;29;20089;-86
2021/05/29 04:22:49;;;;;;;7.97;5.70;;;16.20;56.50;;;;;;4883132;29;20026;-86
2021/05/29 04:25:19;;;;;;;7.20;5.45;;;16.10;56.10;;;;;;4883356;29;20860;-88
2021/05/29 04:27:45;;;;;;;6.68;5.70;;;16.10;56.00;;;;;;4882997;29;20053;-87
2021/05/29 04:30:14;;;;;;;6.72;5.50;;;16.10;55.80;;;;;;4882859;29;20100;-87
2021/05/29 04:32:40;;;;;;;8.20;5.15;;;16.00;55.60;;;;;;4882949;29;20029;-87
2021/05/29 04:35:07;;;;;;;7.38;5.10;;;16.00;55.60;;;;;;4883128;29;20366;-87
2021/05/29 04:37:33;;;;;;;7.40;5.70;;;16.00;55.50;;;;;;4883036;29;20036;-87
2021/05/29 04:39:59;;;;;;;8.18;5.68;;;16.00;55.50;;;;;;4883098;29;20108;-87
2021/05/29 04:42:25;;;;;;;6.18;4.97;;;16.00;55.50;;;;;;4882903;29;20047;-88
2021/05/29 04:44:51;;;;;;;7.18;5.20;;;16.00;55.50;;;;;;4883138;29;20029;-87
2021/05/29 04:47:16;;;;;;;7.03;4.93;;;16.00;55.40;;;;;;4885030;29;20057;-87
2021/05/29 04:49:42;;;;;;;6.95;4.70;;;15.90;55.50;;;;;;4886685;29;20025;-88
2021/05/29 04:52:08;;;;;;;8.50;5.60;;;16.00;55.60;;;;;;4886486;29;20029;-88
2021/05/29 04:54:35;;;;;;;7.10;5.40;;;15.90;55.50;;;;;;4886621;29;20018;-88
2021/05/29 04:57:01;;;;;;;7.85;5.97;;;16.00;55.80;;;;;;4886417;29;20068;-87
2021/05/29 04:59:26;;;;;;;8.05;5.57;;;16.00;55.90;;;;;;4886292;29;20033;-88
2021/05/29 05:01:52;;;;;;;8.00;5.97;;;16.00;56.30;;;;;;4884905;29;20056;-88
2021/05/29 05:04:18;;;;;;;7.90;5.80;;;16.00;56.90;;;;;;4886602;29;20036;-88
2021/05/29 05:06:44;;;;;;;10.07;6.65;;;16.10;57.70;;;;;;4885975;29;20097;-88
2021/05/29 05:09:10;;;;;;;9.15;6.05;;;16.10;57.80;;;;;;4869478;29;20029;-87
2021/05/29 05:11:36;;;;;;;7.80;6.57;;;16.10;57.50;;;;;;4881706;29;20025;-87
2021/05/29 05:14:03;;;;;;;8.20;5.95;;;16.10;57.70;;;;;;4881671;29;20078;-88
2021/05/29 05:16:29;;;;;;;9.02;7.10;;;16.10;57.60;;;;;;4882974;29;20489;-87
2021/05/29 05:18:55;;;;;;;9.55;7.85;;;16.10;57.70;;;;;;4886114;29;20113;-88
2021/05/29 05:21:21;;;;;;;9.68;7.47;;;16.10;59.30;;;;;;4885866;29;20070;-88
2021/05/29 05:23:50;;;;;;;10.30;7.60;;;16.10;59.60;;;;;;4886185;29;20032;-88
2021/05/29 05:26:17;;;;;;;9.43;6.60;;;16.10;59.00;;;;;;4884457;29;20067;-88
2021/05/29 05:28:43;;;;;;;9.68;7.22;;;16.10;58.50;;;;;;4895881;29;20080;-88
2021/05/29 05:31:09;;;;;;;10.43;7.07;;;16.10;58.20;;;;;;4871685;29;20113;-89
2021/05/29 05:33:40;;;;;;;9.73;7.95;;;16.10;58.60;;;;;;4865970;29;20053;-88
2021/05/29 05:36:09;;;;;;;12.18;7.30;;;16.10;59.50;;;;;;4871480;29;20112;-88
2021/05/29 05:38:39;;;;;;;9.00;6.78;;;16.10;59.40;;;;;;4884443;29;20081;-88
2021/05/29 05:41:06;;;;;;;9.50;7.28;;;16.20;59.40;;;;;;4885487;29;20018;-88
2021/05/29 05:43:33;;;;;;;9.57;7.40;;;16.20;60.10;;;;;;4885732;29;20017;-88
2021/05/29 05:45:59;;;;;;;10.07;7.88;;;16.30;60.50;;;;;;4880233;29;20158;-88
2021/05/29 05:48:25;;;;;;;10.00;7.72;;;16.40;60.90;;;;;;4867057;29;20030;-87
2021/05/29 05:50:59;;;;;;;8.75;7.82;;;16.40;60.60;;;;;;4884309;29;20130;-87
2021/05/29 05:53:26;;;;;;;10.57;8.15;;;16.50;60.70;;;;;;4869892;29;20481;-88
2021/05/29 05:55:56;;;;;;;11.05;8.30;;;16.60;61.30;;;;;;4885301;29;20029;-88
2021/05/29 05:58:22;;;;;;;9.02;7.60;;;16.60;61.20;;;;;;4885419;29;20141;-87
2021/05/29 06:00:49;;;;;;;11.15;7.97;;;16.70;61.20;;;;;;4867146;29;20060;-88
2021/05/29 06:03:14;;;;;;;10.18;7.50;;;16.80;61.10;;;;;;4885236;29;20084;-87
2021/05/29 06:05:40;;;;;;;7.88;6.72;;;16.80;60.80;;;;;;4885380;29;20049;-88
2021/05/29 06:08:06;;;;;;;7.97;6.75;;;16.80;60.50;;;;;;4884906;29;20085;-88
2021/05/29 06:10:32;;;;;;;8.57;7.63;;;16.90;60.50;;;;;;4865329;29;20056;-88
2021/05/29 06:12:59;;;;;;;8.18;6.88;;;16.90;61.30;;;;;;4867027;29;20343;-88
2021/05/29 06:18:38;;;;;;;11.23;8.60;;;17.00;63.00;;;;;;4884842;29;20040;-88
2021/05/29 06:21:01;;;;;;;9.80;7.93;;;17.00;62.80;;;;;;4884904;29;20025;-88
2021/05/29 06:23:27;;;;;;;10.32;8.15;;;17.00;62.90;;;;;;4884960;29;20032;-88
2021/05/29 06:25:53;;;;;;;9.68;7.82;;;17.00;64.50;;;;;;4883602;29;20029;-87
2021/05/29 06:28:18;;;;;;;9.98;7.75;;;17.00;64.60;;;;;;4884507;29;20104;-87
2021/05/29 06:30:44;;;;;;;9.13;7.43;;;17.00;64.50;;;;;;4884576;29;20044;-87
2021/05/29 06:33:10;;;;;;;9.95;7.90;;;17.00;63.90;;;;;;4884738;29;20396;-88
2021/05/29 06:35:36;;;;;;;9.40;7.63;;;17.10;63.80;;;;;;4884770;29;20035;-88
2021/05/29 06:38:02;;;;;;;10.55;7.80;;;17.10;63.30;;;;;;4883304;29;20077;-88
2021/05/29 06:40:28;;;;;;;7.88;6.65;;;17.20;62.90;;;;;;4884502;29;20396;-88
2021/05/29 06:42:54;;;;;;;9.10;7.00;;;17.30;62.80;;;;;;4867838;29;20029;-87
2021/05/29 06:45:20;;;;;;;11.93;7.85;;;17.40;63.10;;;;;;4875633;29;20029;-87
2021/05/29 06:47:46;;;;;;;7.88;6.78;;;17.70;63.90;;;;;;4884578;29;20029;-87
2021/05/29 06:50:12;;;;;;;8.00;6.88;;;17.80;63.90;;;;;;4884253;29;20025;-88
2021/05/29 06:52:42;;;;;;;8.57;7.00;;;18.10;64.30;;;;;;4885365;29;20400;-86
2021/05/29 07:00:48;;;;;;;7.88;6.25;;;18.90;65.30;;;;;;4883903;29;20039;-87
2021/05/29 07:03:14;;;;;;;8.00;5.43;;;19.40;66.50;;;;;;4884157;29;20025;-86
2021/05/29 07:05:40;;;;;;;8.18;6.38;;;19.70;66.30;;;;;;4884159;29;20492;-85
2021/05/29 07:08:06;;;;;;;9.00;5.50;;;20.00;65.70;;;;;;4883790;29;20040;-86
2021/05/29 07:10:32;;;;;;;10.02;5.68;;;20.30;65.80;;;;;;4877310;29;20060;-86
2021/05/29 07:12:58;;;;;;;7.93;5.15;;;20.50;64.80;;;;;;4865999;29;20025;-86
2021/05/29 07:15:42;;;;;;;7.25;5.28;;;20.70;63.40;;;;;;4883756;29;20029;-86
2021/05/29 07:18:13;;;;;;;6.57;5.47;;;20.70;62.40;;;;;;4883807;29;20404;-86
2021/05/29 07:20:40;;;;;;;8.00;5.43;;;20.70;62.00;;;;;;4884010;29;20028;-86
2021/05/29 07:23:08;;;;;;;7.45;5.53;;;20.60;61.50;;;;;;4883685;29;20029;-85
2021/05/29 07:25:36;;;;;;;7.20;5.75;;;20.60;60.10;;;;;;4884110;29;20500;-85
2021/05/29 07:28:02;;;;;;;9.07;5.72;;;20.50;60.90;;;;;;4883578;29;20035;-85
2021/05/29 07:30:28;;;;;;;7.50;5.03;;;20.50;61.10;;;;;;4883433;29;20100;-85
2021/05/29 07:32:54;;;;;;;7.90;5.30;;;20.50;61.00;;;;;;4882290;29;20448;-85
2021/05/29 07:35:21;;;;;;;7.40;5.68;;;20.40;60.00;;;;;;4866932;29;20021;-85
2021/05/29 07:37:47;;;;;;;7.75;6.03;;;20.30;60.20;;;;;;4883546;29;20049;-86
2021/05/29 07:40:13;;;;;;;6.88;5.30;;;20.20;60.50;;;;;;4883670;29;20036;-84
2021/05/29 07:42:40;;;;;;;8.45;5.47;;;20.20;60.70;;;;;;4883456;29;20033;-85
2021/05/29 07:45:08;;;;;;;7.88;5.45;;;20.10;60.60;;;;;;4883120;29;20460;-84
2021/05/29 07:47:34;;;;;;;7.97;6.10;;;20.10;60.70;;;;;;4866303;29;20037;-85
2021/05/29 07:50:00;;;;;;;7.10;5.45;;;20.10;60.80;;;;;;4874208;29;20499;-85
2021/05/29 07:52:26;;;;;;;8.63;5.97;;;20.10;60.80;;;;;;4883277;29;20108;-85
2021/05/29 07:54:51;;;;;;;9.65;5.20;;;20.10;60.50;;;;;;4883513;29;20029;-85
2021/05/29 07:57:17;;;;;;;6.88;5.50;;;20.00;60.30;;;;;;4866719;29;20381;-85
2021/05/29 07:59:45;;;;;;;6.07;4.82;;;20.00;60.10;;;;;;4883055;29;20029;-85
2021/05/29 08:02:11;;;;;;;8.60;5.75;;;20.00;60.10;;;;;;4883173;29;20029;-85
2021/05/29 08:04:37;;;;;;;7.03;5.57;;;20.00;60.20;;;;;;4883245;29;20088;-85
2021/05/29 08:07:03;;;;;;;6.38;5.35;;;20.00;60.10;;;;;;4883146;29;20026;-86
2021/05/29 08:09:29;;;;;;;6.38;5.53;;;20.00;60.10;;;;;;4883209;29;20029;-85
2021/05/29 08:11:55;;;;;;;7.65;5.35;;;19.90;59.70;;;;;;4883130;29;20382;-85
2021/05/29 08:14:21;;;;;;;9.55;5.82;;;19.90;60.40;;;;;;4882981;29;20080;-85
2021/05/29 08:16:47;;;;;;;6.93;5.43;;;19.90;59.90;;;;;;4882985;29;20017;-85
2021/05/29 08:19:13;;;;;;;8.20;5.30;;;20.00;60.00;;;;;;4883201;29;20033;-86
2021/05/29 08:21:41;;;;;;;8.80;5.68;;;20.00;60.00;;;;;;4883162;29;20033;-85
2021/05/29 08:24:07;;;;;;;7.65;5.97;;;20.10;60.10;;;;;;4884779;29;20036;-85
2021/05/29 08:26:35;;;;;;;6.72;5.18;;;20.20;60.30;;;;;;4886944;29;20048;-86
2021/05/29 08:29:03;;;;;;;8.30;5.63;;;20.40;60.70;;;;;;4885406;29;20414;-86
2021/05/29 08:31:28;;;;;;;8.38;5.90;;;20.60;60.70;;;;;;4887096;29;20405;-84
2021/05/29 08:33:54;;;;;;;8.63;6.43;;;20.70;60.10;;;;;;4887008;29;20077;-85
2021/05/29 08:36:20;;;;;;;6.90;5.50;;;20.80;60.30;;;;;;4887237;29;20014;-85
2021/05/29 08:38:46;;;;;;;7.65;5.38;;;21.00;60.20;;;;;;4886817;29;20393;-85
2021/05/29 08:41:12;;;;;;;7.00;5.28;;;21.20;60.20;;;;;;4886723;29;20069;-85
2021/05/29 08:43:38;;;;;;;7.05;4.60;;;21.40;60.50;;;;;;4869538;29;20496;-86
2021/05/29 08:46:05;;;;;;;7.80;5.57;;;21.60;60.90;;;;;;4880705;29;20172;-87
2021/05/29 08:48:31;;;;;;;6.68;5.25;;;21.80;60.10;;;;;;4851182;29;20030;-86
2021/05/29 08:51:15;;;;;;;6.53;5.10;;;22.00;60.30;;;;;;4872487;29;20061;-86
2021/05/29 08:53:47;;;;;;;6.97;5.53;;;22.10;60.70;;;;;;4886493;29;20029;-86
2021/05/29 08:56:14;;;;;;;7.53;5.57;;;22.40;61.30;;;;;;4886568;29;20024;-86
2021/05/29 08:58:40;;;;;;;8.77;5.70;;;22.60;61.50;;;;;;4886054;29;20036;-84
2021/05/29 09:01:06;;;;;;;6.10;5.50;;;22.70;61.00;;;;;;4886341;29;20072;-85
2021/05/29 09:04:00;;;;;;;6.60;4.97;;;22.80;60.70;;;;;;4869747;29;20029;-85
2021/05/29 09:06:26;;;;;;;7.45;4.93;;;23.00;59.30;;;;;;4883284;29;20049;-85
2021/05/29 09:08:54;;;;;;;7.93;5.82;;;23.00;58.00;;;;;;4869849;29;20040;-86
2021/05/29 09:11:40;;;;;;;7.90;5.07;;;23.00;57.70;;;;;;4886098;29;20021;-86
2021/05/29 09:14:22;;;;;;;7.03;5.03;;;23.00;57.70;;;;;;4886158;29;20062;-87
2021/05/29 09:17:08;;;;;;;7.10;4.97;;;23.10;58.40;;;;;;4885958;29;20516;-87
2021/05/29 09:20:02;;;;;;;7.82;5.10;;;23.20;58.40;;;;;;4886040;29;20033;-87
2021/05/29 09:22:28;;;;;;;7.22;4.65;;;23.40;58.70;;;;;;4886031;29;20098;-87
2021/05/29 09:25:08;;;;;;;7.03;4.90;;;23.60;59.20;;;;;;4885918;29;20533;-87
2021/05/29 09:27:37;;;;;;;7.15;4.75;;;23.80;59.20;;;;;;4886089;29;20088;-87
2021/05/29 09:30:08;;;;;;;7.13;4.60;;;24.10;58.40;;;;;;4885707;29;20108;-87
2021/05/29 09:32:35;;;;;;;8.10;4.82;;;24.50;59.70;;;;;;4884451;29;20032;-86
2021/05/29 09:35:08;;;;;;;8.50;4.32;;;24.70;59.50;;;;;;4885825;29;20028;-86
2021/05/29 09:37:35;;;;;;;6.22;4.75;;;25.00;57.70;;;;;;4885709;29;20052;-87
2021/05/29 09:40:07;;;;;;;6.47;4.55;;;25.20;57.70;;;;;;4885703;29;20032;-87
2021/05/29 09:42:37;;;;;;;6.53;4.15;;;25.60;58.70;;;;;;4885624;29;20033;-87
2021/05/29 09:45:27;;;;;;;8.38;4.70;;;26.00;56.80;;;;;;4885266;29;20433;-86
2021/05/29 09:48:22;;;;;;;5.72;4.38;;;26.50;57.60;;;;;;4874061;29;20477;-86
2021/05/29 09:51:13;;;;;;;5.28;3.70;;;27.00;56.20;;;;;;4884104;29;20033;-86
2021/05/29 09:53:40;;;;;;;5.85;3.70;;;27.40;55.70;;;;;;4885346;29;20037;-87
2021/05/29 09:56:07;;;;;;;8.02;4.50;;;27.60;55.60;;;;;;4885849;29;20055;-87
2021/05/29 09:58:58;;;;;;;6.93;4.18;;;27.70;53.00;;;;;;4885218;29;20101;-87
2021/05/29 10:01:44;;;;;;;6.07;4.28;;;27.60;53.40;;;;;;4884244;29;20041;-86
2021/05/29 10:04:14;;;;;;;7.18;4.47;;;27.50;53.40;;;;;;4885483;29;20024;-86
2021/05/29 10:06:41;;;;;;;6.60;4.90;;;27.60;54.00;;;;;;4884898;29;20044;-86
2021/05/29 10:09:07;;;;;;;4.60;3.55;;;27.70;54.00;;;;;;4877473;29;20022;-86
2021/05/29 10:11:37;;;;;;;9.68;4.78;;;27.70;53.20;;;;;;4880450;29;20029;-86
2021/05/29 10:14:06;;;;;;;6.10;4.60;;;27.60;53.20;;;;;;4884998;29;20115;-86
2021/05/29 10:16:33;;;;;;;5.53;4.28;;;27.60;54.20;;;;;;4868363;29;20078;-85
2021/05/29 10:19:01;;;;;;;6.13;4.00;;;28.10;55.30;;;;;;4868211;29;20111;-86
2021/05/29 10:21:31;;;;;;;5.47;3.50;;;28.90;54.80;;;;;;4885088;29;20398;-85
2021/05/29 10:23:59;;;;;;;6.68;3.80;;;29.60;55.40;;;;;;4885009;29;20108;-86
2021/05/29 10:26:26;;;;;;;5.57;3.40;;;30.20;54.40;;;;;;4884769;29;20472;-86
2021/05/29 10:28:53;;;;;;;4.95;3.30;;;30.90;54.80;;;;;;4884701;29;20104;-86
2021/05/29 10:31:19;;;;;;;6.30;3.55;;;31.60;55.10;;;;;;4884517;29;20089;-86
2021/05/29 10:33:45;;;;;;;5.57;3.65;;;32.00;52.50;;;;;;4884911;29;20511;-86
2021/05/29 10:36:36;;;;;;;6.57;3.97;;;32.30;51.40;;;;;;4884660;29;20021;-87
2021/05/29 10:39:06;;;;;;;4.95;3.55;;;32.70;51.00;;;;;;4884555;29;20561;-86
2021/05/29 10:41:57;;;;;;;5.38;3.70;;;33.20;52.30;;;;;;4884785;29;20508;-86
2021/05/29 10:44:35;;;;;;;4.63;3.60;;;33.60;51.80;;;;;;4864337;29;20025;-86
2021/05/29 10:47:20;;;;;;;6.90;4.40;;;34.00;50.20;;;;;;4877959;29;20033;-86
2021/05/29 10:49:49;;;;;;;4.70;3.20;;;34.40;50.50;;;;;;4884598;29;20560;-86
2021/05/29 10:52:33;;;;;;;5.95;2.88;;;34.50;49.90;;;;;;4884317;29;20025;-86
2021/05/29 10:55:11;;;;;;;5.68;3.17;;;34.80;48.70;;;;;;4884375;29;20021;-87
2021/05/29 10:57:57;;;;;;;6.07;3.13;;;35.10;49.00;;;;;;4884498;29;20089;-86
2021/05/29 11:00:35;;;;;;;4.78;3.38;;;35.40;49.00;;;;;;4883852;29;20077;-86
2021/05/29 11:03:16;;;;;;;4.53;3.17;;;35.70;46.80;;;;;;4884432;29;20032;-86
2021/05/29 11:05:42;;;;;;;5.30;3.55;;;35.90;47.40;;;;;;4884141;29;20049;-87
2021/05/29 11:08:44;;;;;;;6.35;3.92;;;36.00;46.70;;;;;;4883814;29;20033;-87
2021/05/29 11:14:16;;;;;;;4.97;3.20;;;35.60;46.20;;;;;;4875228;29;20082;-88
2021/05/29 11:19:22;;;;;;;5.88;2.97;;;35.70;45.40;;;;;;4884310;29;20085;-87
2021/05/29 11:22:13;;;;;;;4.83;2.57;;;35.90;46.80;;;;;;4883836;29;20036;-87
2021/05/29 11:24:53;;;;;;;4.47;2.60;;;36.00;46.30;;;;;;4867288;29;20362;-87
2021/05/29 11:27:27;;;;;;;4.03;2.60;;;36.20;46.70;;;;;;4883865;29;20048;-87
2021/05/29 11:30:14;;;;;;;5.38;2.40;;;36.40;45.00;;;;;;4883367;29;20081;-87
2021/05/29 11:32:48;;;;;;;5.70;2.70;;;36.30;44.00;;;;;;4883709;29;20029;-87
2021/05/29 11:35:29;;;;;;;4.43;2.70;;;36.30;45.60;;;;;;4882419;29;20017;-88
2021/05/29 11:38:11;;;;;;;5.47;2.35;;;36.20;44.20;;;;;;4883749;29;20028;-87
2021/05/29 11:40:53;;;;;;;7.20;2.75;;;36.10;44.50;;;;;;4883514;29;20028;-87
2021/05/29 11:43:35;;;;;;;5.07;2.83;;;36.10;44.10;;;;;;4883505;29;20081;-88
2021/05/29 11:46:03;;;;;;;4.97;2.70;;;35.90;43.70;;;;;;4878005;29;20093;-87
2021/05/29 11:48:30;;;;;;;5.00;2.50;;;35.50;41.70;;;;;;4876644;29;20039;-87
2021/05/29 11:51:12;;;;;;;5.53;2.85;;;35.10;43.50;;;;;;4883382;29;20036;-87
2021/05/29 11:53:47;;;;;;;5.28;3.25;;;34.50;41.50;;;;;;4883283;29;20044;-87
2021/05/29 11:56:35;;;;;;;7.20;2.88;;;33.80;41.20;;;;;;4883501;29;20031;-86
2021/05/29 11:59:04;;;;;;;4.22;2.90;;;33.20;40.90;;;;;;4882458;29;20029;-86
2021/05/29 12:01:32;;;;;;;6.10;3.00;;;32.80;41.80;;;;;;4883299;29;20017;-87
2021/05/29 12:04:00;;;;;;;4.90;2.95;;;32.50;42.50;;;;;;4883347;29;20025;-87
2021/05/29 12:07:07;;;;;;;6.57;3.30;;;32.40;44.30;;;;;;4882897;29;20048;-86
2021/05/29 12:09:36;;;;;;;4.85;3.10;;;32.20;43.90;;;;;;4882702;29;20092;-86
2021/05/29 12:12:07;;;;;;;7.38;3.92;;;32.00;42.20;;;;;;4864891;29;20026;-88
2021/05/29 12:14:37;;;;;;;;;;;31.70;41.50;;;;;;4877851;29;20029;-87
2021/05/29 12:17:05;;;;;;;7.82;3.80;;;31.40;42.10;;;;;;4883202;29;19963;-88
2021/05/29 12:19:39;;;;;;;7.88;4.15;;;31.00;42.80;;;;;;4883074;29;20028;-87
2021/05/29 12:22:17;;;;;;;5.32;3.65;;;30.60;42.80;;;;;;4883245;29;20107;-87
2021/05/29 12:24:51;;;;;;;7.82;4.32;;;30.30;43.60;;;;;;4883054;29;20029;-87
2021/05/29 12:27:28;;;;;;;6.30;4.53;;;29.90;44.40;;;;;;4883072;29;20112;-87
2021/05/29 12:30:07;;;;;;;6.70;5.32;;;29.60;44.50;;;;;;4882833;29;20037;-88
2021/05/29 12:32:32;;;;;;;8.60;6.05;;;29.30;44.70;;;;;;4883115;29;20021;-87
2021/05/29 12:34:58;;;;;;;7.88;5.20;;;29.00;44.50;;;;;;4883157;29;20032;-87
2021/05/29 12:37:29;;;;;;;6.72;4.82;;;28.70;45.20;;;;;;4866157;29;20033;-88
2021/05/29 12:40:03;;;;;;;8.85;5.40;;;28.50;45.20;;;;;;4883236;29;20021;-88
2021/05/29 12:42:33;;;;;;;15.98;9.00;;;28.30;45.50;;;;;;4866427;29;20093;-87
2021/05/29 12:45:14;;;;;;;14.57;8.32;;;28.10;45.90;;;;;;4890120;29;20029;-88
2021/05/29 12:47:54;;;;;;;13.93;8.32;;;27.90;46.00;;;;;;4866989;29;20033;-88
2021/05/29 12:50:24;;;;;;;11.35;7.32;;;27.80;46.20;;;;;;4882869;29;20013;-87
2021/05/29 12:52:49;;;;;;;7.50;5.38;;;27.60;46.70;;;;;;4883083;29;20127;-87
2021/05/29 12:55:25;;;;;;;9.35;5.60;;;27.50;46.10;;;;;;4882959;29;20065;-87
2021/05/29 12:57:52;;;;;;;9.02;6.20;;;27.30;46.20;;;;;;4883067;29;20036;-88
2021/05/29 13:09:20;;;;;;;8.65;5.40;;;26.60;47.30;;;;;;4884090;29;20496;-87
2021/05/29 13:11:46;;;;;;;6.72;4.55;;;26.40;47.40;;;;;;4872799;29;20366;-87
2021/05/29 13:14:18;;;;;;;7.60;5.43;;;26.30;47.70;;;;;;4867619;29;20025;-86
2021/05/29 13:16:50;;;;;;;6.87;5.27;;;26.20;47.90;;;;;;4867436;29;20029;-86
2021/05/29 13:19:16;;;;;;;7.50;5.00;;;26.00;48.20;;;;;;4866308;29;20033;-86
2021/05/29 13:22:00;;;;;;;10.13;6.78;;;25.90;48.10;;;;;;4872729;29;20029;-86